Time;durP1;ratioP1;P1;durP2;ratioP2;P2;SDS_P1;SDS_P2;PMS_P1;PMS_P2;Temp;Humidity;BMP_temperature;BMP_pressure;BME280_temperature;BME280_humidity;BME280_pressure;Samples;Min_cycle;Max_cycle;Signal;HPM_P1;HPM_P2
2023/10/11 00:00:39;;;;;;;644.42;576.65;;;;;;;;;;4904763;29;20445;-73
2023/10/11 00:03:52;;;;;;;627.95;566.97;;;;;;;;;;4929499;29;21066;-73
2023/10/11 00:05:55;;;;;;;632.97;570.55;;;;;;;;;;4903512;29;20927;-73
2023/10/11 00:08:26;;;;;;;606.37;549.77;;;;;;;;;;4924357;29;20443;-73
2023/10/11 00:10:55;;;;;;;637.03;573.60;;;;;;;;;;4925944;29;20902;-73
2023/10/11 00:13:23;;;;;;;645.78;575.28;;;;;;;;;;4928406;29;20487;-73
2023/10/11 00:15:51;;;;;;;625.10;564.20;;;;;;;;;;4899234;29;20541;-73
2023/10/11 00:18:22;;;;;;;626.78;563.03;;;;;;;;;;4921339;29;20462;-73
2023/10/11 00:20:51;;;;;;;622.58;560.67;;;;;;;;;;4920126;29;20492;-73
2023/10/11 00:23:22;;;;;;;633.85;570.20;;;;;;;;;;4922930;29;20475;-73
2023/10/11 00:26:00;;;;;;;636.08;567.63;;;;;;;;;;4914982;29;20510;-73
2023/10/11 00:28:32;;;;;;;627.60;560.95;;;;;;;;;;4925195;29;20502;-74
2023/10/11 00:31:01;;;;;;;625.38;562.70;;;;;;;;;;4911210;29;20450;-73
2023/10/11 00:33:33;;;;;;;618.33;558.70;;;;;;;;;;4924877;29;20760;-73
2023/10/11 00:36:05;;;;;;;622.28;559.55;;;;;;;;;;4918560;29;20835;-73
2023/10/11 00:38:43;;;;;;;625.97;562.38;;;;;;;;;;4927529;29;20818;-73
2023/10/11 00:41:17;;;;;;;620.65;555.85;;;;;;;;;;4904710;29;20514;-73
2023/10/11 00:43:50;;;;;;;616.78;555.78;;;;;;;;;;4928394;29;20454;-73
2023/10/11 00:46:19;;;;;;;618.83;554.95;;;;;;;;;;4919493;29;20864;-73
2023/10/11 00:51:49;;;;;;;649.30;563.33;;;;;;;;;;4827111;29;20579;-73
2023/10/11 00:54:17;;;;;;;633.95;553.88;;;;;;;;;;4827526;29;20519;-73
2023/10/11 00:56:47;;;;;;;646.13;554.55;;;;;;;;;;4829647;29;20454;-74
2023/10/11 00:59:22;;;;;;;642.78;561.38;;;;;;;;;;4829638;29;20451;-73
2023/10/11 01:01:52;;;;;;;641.13;552.17;;;;;;;;;;4828259;29;20451;-73
2023/10/11 01:04:25;;;;;;;616.97;551.72;;;;;;;;;;4830681;29;20443;-73
2023/10/11 01:06:52;;;;;;;619.63;550.90;;;;;;;;;;4831978;29;20559;-73
2023/10/11 01:09:27;;;;;;;622.37;554.47;;;;;;;;;;4831168;29;20462;-74
2023/10/11 01:11:54;;;;;;;612.78;546.15;;;;;;;;;;4826378;29;20560;-74
2023/10/11 01:14:24;;;;;;;618.22;550.30;;;;;;;;;;4826275;29;20538;-74
2023/10/11 01:16:59;;;;;;;630.20;541.92;;;;;;;;;;4832580;29;20458;-73
2023/10/11 01:19:26;;;;;;;639.22;541.17;;;;;;;;;;4830809;29;20496;-73
2023/10/11 01:21:59;;;;;;;605.03;540.05;;;;;;;;;;4829407;29;20443;-73
2023/10/11 01:24:26;;;;;;;135.75;123.65;;;;;;;;;;4831995;29;20451;-73
2023/10/11 01:26:56;;;;;;;382.40;346.10;;;;;;;;;;4904523;29;20520;-74
2023/10/11 01:29:23;;;;;;;351.65;319.45;;;;;;;;;;4924540;29;20969;-73
2023/10/11 01:31:50;;;;;;;129.15;118.75;;;;;;;;;;4917701;29;20445;-73
2023/10/11 01:34:18;;;;;;;48.60;44.78;;;;;;;;;;4924255;29;20475;-73
2023/10/11 01:36:45;;;;;;;275.95;252.02;;;;;;;;;;4924443;29;21148;-73
2023/10/11 01:39:13;;;;;;;510.25;460.73;;;;;;;;;;4923840;29;20472;-74
2023/10/11 01:41:42;;;;;;;728.58;536.50;;;;;;;;;;4925129;29;20920;-74
2023/10/11 01:44:11;;;;;;;754.15;536.15;;;;;;;;;;4920927;29;20446;-74
2023/10/11 01:46:40;;;;;;;664.20;522.33;;;;;;;;;;4903484;29;21563;-74
2023/10/11 01:49:09;;;;;;;868.25;525.75;;;;;;;;;;4917681;29;20448;-74
2023/10/11 01:51:39;;;;;;;791.97;523.90;;;;;;;;;;4922350;29;20839;-74
2023/10/11 01:54:07;;;;;;;563.15;501.27;;;;;;;;;;4921073;29;20510;-73
2023/10/11 01:56:40;;;;;;;377.17;341.75;;;;;;;;;;4915417;29;20469;-73
2023/10/11 01:59:12;;;;;;;576.85;517.85;;;;;;;;;;4918987;29;20445;-73
2023/10/11 02:01:39;;;;;;;414.75;374.60;;;;;;;;;;4918416;29;20451;-73
2023/10/11 02:04:16;;;;;;;511.27;461.45;;;;;;;;;;4921344;29;20466;-74
2023/10/11 02:06:44;;;;;;;556.90;500.55;;;;;;;;;;4921269;29;20440;-74
2023/10/11 02:09:11;;;;;;;602.45;506.10;;;;;;;;;;4921386;29;20439;-74
2023/10/11 02:11:42;;;;;;;633.53;500.92;;;;;;;;;;4920520;29;20808;-74
2023/10/11 02:14:14;;;;;;;627.25;496.40;;;;;;;;;;4923500;29;20450;-73
2023/10/11 02:16:41;;;;;;;547.05;490.05;;;;;;;;;;4925245;29;21005;-74
2023/10/11 02:19:09;;;;;;;589.63;489.13;;;;;;;;;;4919374;29;20448;-74
2023/10/11 02:21:36;;;;;;;644.83;485.70;;;;;;;;;;4928656;29;20748;-73
2023/10/11 02:24:09;;;;;;;702.03;488.50;;;;;;;;;;4927133;29;20468;-74
2023/10/11 02:26:39;;;;;;;697.95;494.88;;;;;;;;;;4922155;29;20450;-73
2023/10/11 02:29:15;;;;;;;649.45;489.88;;;;;;;;;;4925532;29;20443;-73
2023/10/11 02:31:43;;;;;;;782.70;494.98;;;;;;;;;;4927779;29;20454;-73
2023/10/11 02:34:13;;;;;;;544.88;472.30;;;;;;;;;;4926626;29;20443;-73
2023/10/11 02:36:45;;;;;;;530.55;473.38;;;;;;;;;;4929557;29;20516;-73
2023/10/11 02:39:22;;;;;;;560.97;474.15;;;;;;;;;;4928527;29;20479;-73
2023/10/11 02:41:50;;;;;;;582.47;473.38;;;;;;;;;;4924181;29;20431;-73
2023/10/11 02:44:22;;;;;;;673.10;481.77;;;;;;;;;;4924728;29;20441;-73
2023/10/11 02:46:53;;;;;;;629.75;481.00;;;;;;;;;;4924368;29;20776;-73
2023/10/11 02:49:21;;;;;;;679.80;483.27;;;;;;;;;;4922150;29;20531;-73
2023/10/11 02:51:56;;;;;;;641.08;477.58;;;;;;;;;;4922626;29;20498;-74
2023/10/11 02:54:33;;;;;;;658.25;478.13;;;;;;;;;;4930633;29;20786;-73
2023/10/11 02:57:06;;;;;;;515.38;455.60;;;;;;;;;;4925858;29;20454;-73
2023/10/11 02:59:34;;;;;;;676.55;469.50;;;;;;;;;;4923648;29;20441;-73
2023/10/11 03:02:01;;;;;;;746.20;481.02;;;;;;;;;;4922031;29;20925;-73
2023/10/11 03:04:33;;;;;;;746.15;478.33;;;;;;;;;;4924632;29;20447;-73
2023/10/11 03:07:00;;;;;;;683.25;464.75;;;;;;;;;;4925131;29;20431;-73
2023/10/11 03:09:28;;;;;;;663.47;466.00;;;;;;;;;;4923084;29;20557;-73
2023/10/11 03:12:05;;;;;;;616.22;463.33;;;;;;;;;;4927929;29;20983;-73
2023/10/11 03:14:41;;;;;;;632.90;465.58;;;;;;;;;;4921082;29;20822;-73
2023/10/11 03:17:14;;;;;;;683.03;471.27;;;;;;;;;;4913145;29;20792;-73
2023/10/11 03:19:45;;;;;;;615.65;474.95;;;;;;;;;;4909031;29;20549;-73
2023/10/11 03:22:21;;;;;;;509.48;453.48;;;;;;;;;;4920288;29;20542;-73
2023/10/11 03:24:53;;;;;;;341.85;309.52;;;;;;;;;;4921781;29;20774;-73
2023/10/11 03:27:23;;;;;;;489.42;438.77;;;;;;;;;;4910100;29;20502;-73
2023/10/11 03:29:56;;;;;;;483.17;431.65;;;;;;;;;;4921433;29;20924;-72
2023/10/11 03:32:26;;;;;;;487.58;435.80;;;;;;;;;;4926452;29;20439;-72
2023/10/11 03:34:57;;;;;;;483.63;427.47;;;;;;;;;;4916841;29;20511;-73
2023/10/11 03:37:27;;;;;;;599.88;440.85;;;;;;;;;;4919355;29;20522;-73
2023/10/11 03:39:58;;;;;;;739.70;449.30;;;;;;;;;;4921961;29;20849;-72
2023/10/11 03:45:12;;;;;;;595.40;435.75;;;;;;;;;;4921749;29;20435;-73
2023/10/11 03:47:40;;;;;;;616.15;437.25;;;;;;;;;;4920788;29;20477;-74
2023/10/11 03:50:11;;;;;;;541.83;436.25;;;;;;;;;;4925016;29;20552;-73
2023/10/11 03:52:40;;;;;;;650.33;443.70;;;;;;;;;;4926532;29;20534;-73
2023/10/11 03:55:10;;;;;;;641.35;439.55;;;;;;;;;;4907508;29;20536;-73
2023/10/11 03:57:42;;;;;;;539.15;417.73;;;;;;;;;;4920620;29;20518;-73
2023/10/11 04:00:28;;;;;;;642.97;431.17;;;;;;;;;;4907577;29;20445;-72
2023/10/11 04:03:02;;;;;;;543.35;411.75;;;;;;;;;;4922319;29;21148;-73
2023/10/11 04:05:39;;;;;;;593.83;428.27;;;;;;;;;;4922317;29;20463;-72
2023/10/11 04:08:11;;;;;;;620.97;437.85;;;;;;;;;;4922468;29;20526;-73
2023/10/11 04:10:49;;;;;;;738.75;440.45;;;;;;;;;;4909294;29;20447;-72
2023/10/11 04:13:19;;;;;;;788.80;446.38;;;;;;;;;;4922714;29;20481;-72
2023/10/11 04:15:49;;;;;;;730.45;445.80;;;;;;;;;;4925153;29;20443;-72
2023/10/11 04:23:46;;;;;;;781.17;453.38;;;;;;;;;;4920286;29;20445;-73
2023/10/11 04:26:26;;;;;;;776.75;454.98;;;;;;;;;;4921479;29;20440;-73
2023/10/11 04:28:53;;;;;;;779.92;450.02;;;;;;;;;;4906654;29;20556;-73
2023/10/11 04:31:38;;;;;;;779.83;446.23;;;;;;;;;;4920257;29;20451;-73
2023/10/11 04:34:11;;;;;;;769.67;443.10;;;;;;;;;;4928333;29;20471;-73
2023/10/11 04:36:42;;;;;;;772.65;439.45;;;;;;;;;;4919865;29;20523;-73
2023/10/11 04:39:27;;;;;;;752.00;437.17;;;;;;;;;;4929096;29;20466;-73
2023/10/11 04:41:59;;;;;;;710.28;420.75;;;;;;;;;;4924105;29;20439;-72
2023/10/11 04:44:35;;;;;;;738.33;428.57;;;;;;;;;;4926909;29;20443;-73
2023/10/11 04:47:02;;;;;;;678.30;422.88;;;;;;;;;;4927716;29;20439;-73
2023/10/11 04:49:38;;;;;;;663.10;412.55;;;;;;;;;;4928260;29;20453;-73
2023/10/11 04:52:13;;;;;;;730.75;427.65;;;;;;;;;;4906248;29;20467;-73
2023/10/11 04:54:53;;;;;;;748.80;425.83;;;;;;;;;;4923967;29;20435;-73
2023/10/11 04:57:40;;;;;;;752.42;423.80;;;;;;;;;;4919216;29;20432;-73
2023/10/11 05:00:17;;;;;;;744.13;415.33;;;;;;;;;;4928268;29;20439;-73
2023/10/11 05:02:51;;;;;;;747.35;415.42;;;;;;;;;;4920856;29;20443;-73
2023/10/11 05:05:19;;;;;;;744.42;404.15;;;;;;;;;;4928765;29;20439;-72
2023/10/11 05:07:46;;;;;;;744.95;410.52;;;;;;;;;;4926564;29;20451;-72
2023/10/11 05:12:58;;;;;;;725.00;411.38;;;;;;;;;;4927962;29;20528;-72
2023/10/11 05:15:39;;;;;;;716.10;415.30;;;;;;;;;;4921104;29;21054;-72
2023/10/11 05:18:18;;;;;;;724.15;411.30;;;;;;;;;;4921251;29;20786;-72
2023/10/11 05:20:57;;;;;;;713.17;417.45;;;;;;;;;;4918482;29;20481;-72
2023/10/11 05:29:23;;;;;;;718.75;422.90;;;;;;;;;;4920608;29;20507;-72
2023/10/11 05:32:19;;;;;;;667.03;416.25;;;;;;;;;;4927298;29;20451;-72
2023/10/11 05:35:06;;;;;;;735.55;410.35;;;;;;;;;;4914856;29;20931;-72
2023/10/11 05:51:26;;;;;;;744.13;413.05;;;;;;;;;;4922493;29;20499;-72
2023/10/11 05:53:54;;;;;;;733.47;402.60;;;;;;;;;;4913167;29;20473;-72
2023/10/11 05:56:22;;;;;;;717.47;390.58;;;;;;;;;;4925545;29;20439;-72
2023/10/11 05:58:51;;;;;;;715.58;391.90;;;;;;;;;;4929014;29;20443;-72
2023/10/11 06:01:21;;;;;;;711.35;394.42;;;;;;;;;;4920472;29;20515;-73
2023/10/11 06:03:51;;;;;;;711.22;392.42;;;;;;;;;;4921650;29;21213;-72
2023/10/11 06:09:26;;;;;;;710.80;390.90;;;;;;;;;;4855119;29;20465;-72
2023/10/11 06:11:57;;;;;;;702.40;384.07;;;;;;;;;;4862558;29;20499;-72
2023/10/11 06:14:24;;;;;;;703.03;384.37;;;;;;;;;;4866373;29;20478;-72
2023/10/11 06:16:58;;;;;;;698.17;385.75;;;;;;;;;;4864498;29;20489;-72
2023/10/11 06:19:26;;;;;;;698.45;384.90;;;;;;;;;;4860586;29;20453;-72
2023/10/11 06:21:58;;;;;;;696.08;381.02;;;;;;;;;;4847279;29;20441;-72
2023/10/11 06:24:30;;;;;;;693.20;382.83;;;;;;;;;;4865888;29;20496;-72
2023/10/11 06:27:11;;;;;;;684.63;370.80;;;;;;;;;;4859499;29;20476;-72
2023/10/11 06:29:41;;;;;;;682.40;372.02;;;;;;;;;;4862812;29;20442;-72
2023/10/11 06:32:11;;;;;;;687.58;381.40;;;;;;;;;;4852114;29;20545;-72
2023/10/11 06:34:47;;;;;;;679.88;373.02;;;;;;;;;;4856132;29;20494;-72
2023/10/11 06:37:19;;;;;;;653.40;347.02;;;;;;;;;;4868141;29;20533;-71
2023/10/11 06:44:51;;;;;;;608.30;301.20;;;;;;;;;;4926640;29;20482;-71
2023/10/11 06:47:19;;;;;;;654.00;341.77;;;;;;;;;;4926851;29;20516;-72
2023/10/11 06:49:57;;;;;;;747.10;438.13;;;;;;;;;;4928033;29;20549;-72
2023/10/11 06:52:31;;;;;;;829.83;521.90;;;;;;;;;;4928612;29;21000;-72
2023/10/11 06:57:55;;;;;;;889.70;583.45;;;;;;;;;;4831036;29;20542;-71
2023/10/11 07:00:24;;;;;;;921.08;622.55;;;;;;;;;;4832520;29;20542;-71
2023/10/11 07:02:53;;;;;;;937.00;651.37;;;;;;;;;;4832159;29;20504;-71
2023/10/11 07:05:21;;;;;;;947.08;659.78;;;;;;;;;;4834422;29;20451;-71
2023/10/11 07:07:52;;;;;;;949.08;672.63;;;;;;;;;;4831817;29;20471;-71
2023/10/11 07:10:45;;;;;;;953.97;680.70;;;;;;;;;;4822346;29;20457;-71
2023/10/11 07:13:09;;;;;;;947.45;673.65;;;;;;;;;;4827279;29;20808;-70
2023/10/11 07:15:43;;;;;;;940.40;658.72;;;;;;;;;;4833075;29;20609;-70
2023/10/11 07:18:21;;;;;;;941.73;660.20;;;;;;;;;;4832911;29;20455;-71
2023/10/11 07:20:48;;;;;;;937.70;658.40;;;;;;;;;;4832870;29;20448;-70
2023/10/11 07:23:20;;;;;;;939.45;657.55;;;;;;;;;;4834664;29;20910;-70
2023/10/11 07:25:59;;;;;;;944.25;669.25;;;;;;;;;;4832603;29;21016;-69
2023/10/11 07:28:36;;;;;;;954.28;676.30;;;;;;;;;;4834014;29;20448;-69
2023/10/11 07:31:05;;;;;;;972.47;695.53;;;;;;;;;;4827125;29;20526;-69
2023/10/11 07:33:36;;;;;;;965.92;680.08;;;;;;;;;;4846177;29;20450;-70
2023/10/11 07:36:11;;;;;;;959.28;666.88;;;;;;;;;;4928440;29;21052;-70
2023/10/11 07:38:43;;;;;;;955.08;668.80;;;;;;;;;;4919654;29;20435;-71
2023/10/11 07:41:18;;;;;;;953.40;667.83;;;;;;;;;;4917607;29;20522;-70
2023/10/11 07:43:46;;;;;;;963.80;689.57;;;;;;;;;;4924549;29;20435;-70
2023/10/11 07:46:17;;;;;;;948.23;679.57;;;;;;;;;;4926008;29;20532;-70
2023/10/11 07:48:47;;;;;;;960.00;696.65;;;;;;;;;;4923845;29;20445;-70
2023/10/11 07:51:15;;;;;;;968.85;712.97;;;;;;;;;;4925685;29;20443;-71
2023/10/11 07:53:43;;;;;;;975.90;728.40;;;;;;;;;;4925973;29;20443;-71
2023/10/11 07:56:15;;;;;;;991.45;753.92;;;;;;;;;;4915621;29;20581;-71
2023/10/11 07:58:46;;;;;;;983.47;740.05;;;;;;;;;;4927777;29;20863;-71
2023/10/11 08:01:27;;;;;;;990.58;758.63;;;;;;;;;;4929263;29;20498;-70
2023/10/11 08:03:54;;;;;;;984.00;750.20;;;;;;;;;;4922388;29;20438;-70
2023/10/11 08:06:25;;;;;;;989.13;757.97;;;;;;;;;;4908762;29;20446;-70
2023/10/11 08:08:59;;;;;;;978.22;739.10;;;;;;;;;;4920793;29;20449;-71
2023/10/11 08:14:15;;;;;;;980.03;740.53;;;;;;;;;;4919053;29;20456;-70
2023/10/11 08:16:47;;;;;;;976.95;736.55;;;;;;;;;;4922525;29;21003;-70
2023/10/11 08:19:14;;;;;;;979.17;732.97;;;;;;;;;;4915891;29;20502;-69
2023/10/11 08:21:54;;;;;;;981.42;732.95;;;;;;;;;;4927875;29;20431;-70
2023/10/11 08:24:25;;;;;;;974.60;728.00;;;;;;;;;;4922561;29;20915;-70
2023/10/11 08:26:53;;;;;;;981.80;736.97;;;;;;;;;;4928458;29;20440;-69
2023/10/11 08:29:30;;;;;;;973.47;727.38;;;;;;;;;;4912893;29;20565;-70
2023/10/11 08:32:01;;;;;;;988.80;761.83;;;;;;;;;;4905304;29;20455;-69
2023/10/11 08:34:28;;;;;;;996.65;768.47;;;;;;;;;;4919245;29;20930;-68
2023/10/11 08:36:56;;;;;;;977.83;741.03;;;;;;;;;;4916141;29;20524;-70
2023/10/11 08:39:35;;;;;;;978.15;741.55;;;;;;;;;;4924520;29;20445;-71
2023/10/11 08:42:09;;;;;;;979.03;746.05;;;;;;;;;;4907371;29;20445;-69
2023/10/11 08:44:36;;;;;;;977.10;743.05;;;;;;;;;;4925324;29;20443;-69
2023/10/11 08:47:04;;;;;;;988.03;751.55;;;;;;;;;;4916370;29;20445;-69
2023/10/11 08:49:33;;;;;;;998.05;769.42;;;;;;;;;;4923099;29;20439;-69
2023/10/11 08:52:01;;;;;;;993.75;761.53;;;;;;;;;;4928227;29;20435;-69
2023/10/11 08:54:32;;;;;;;999.85;767.67;;;;;;;;;;4918475;29;20488;-69
2023/10/11 08:56:59;;;;;;;983.60;744.70;;;;;;;;;;4890942;29;20495;-68
2023/10/11 08:59:30;;;;;;;984.25;742.72;;;;;;;;;;4929438;29;20823;-69
2023/10/11 09:02:07;;;;;;;985.10;747.90;;;;;;;;;;4927539;29;20435;-69
2023/10/11 09:04:35;;;;;;;972.08;779.25;;;;;;;;;;4928750;29;20439;-68
2023/10/11 09:07:02;;;;;;;1004.95;775.28;;;;;;;;;;4925758;29;20949;-69
2023/10/11 09:09:42;;;;;;;1010.22;792.65;;;;;;;;;;4916871;29;20551;-68
2023/10/11 09:12:25;;;;;;;1002.33;775.00;;;;;;;;;;4922283;29;20890;-70
2023/10/11 09:14:59;;;;;;;1006.78;781.60;;;;;;;;;;4917433;29;20475;-70
2023/10/11 09:17:27;;;;;;;1022.72;813.70;;;;;;;;;;4922767;29;20455;-69
2023/10/11 09:20:00;;;;;;;1017.00;820.50;;;;;;;;;;4919494;29;20475;-69
2023/10/11 09:22:28;;;;;;;1036.93;851.42;;;;;;;;;;4928372;29;20439;-70
2023/10/11 09:25:04;;;;;;;1033.22;852.63;;;;;;;;;;4924239;29;20443;-70
2023/10/11 09:27:50;;;;;;;1034.72;866.45;;;;;;;;;;4923501;29;20431;-70
2023/10/11 09:30:20;;;;;;;1060.32;898.75;;;;;;;;;;4912652;29;20955;-71
2023/10/11 09:32:59;;;;;;;1053.53;902.15;;;;;;;;;;4910465;29;20443;-70
2023/10/11 09:35:31;;;;;;;1044.37;889.13;;;;;;;;;;4922670;29;20456;-69
2023/10/11 09:37:59;;;;;;;1047.20;896.73;;;;;;;;;;4921361;29;20945;-69
2023/10/11 09:40:34;;;;;;;1032.70;895.78;;;;;;;;;;4924585;29;20444;-69
2023/10/11 09:43:02;;;;;;;1042.32;893.20;;;;;;;;;;4924680;29;20471;-69
2023/10/11 09:45:42;;;;;;;1046.43;881.73;;;;;;;;;;4924892;29;20439;-70
2023/10/11 09:48:12;;;;;;;1033.23;855.17;;;;;;;;;;4906630;29;20443;-69
2023/10/11 09:50:42;;;;;;;1024.60;878.47;;;;;;;;;;4928706;29;20964;-70
2023/10/11 09:53:11;;;;;;;1039.43;869.58;;;;;;;;;;4926811;29;20539;-71
2023/10/11 09:55:47;;;;;;;1036.20;867.70;;;;;;;;;;4926697;29;20438;-70
2023/10/11 09:58:31;;;;;;;1046.15;879.17;;;;;;;;;;4922160;29;20469;-70
2023/10/11 10:01:08;;;;;;;1047.20;881.33;;;;;;;;;;4925427;29;21481;-72
2023/10/11 10:03:46;;;;;;;1044.03;876.83;;;;;;;;;;4923042;29;20435;-70
2023/10/11 10:06:21;;;;;;;1043.25;879.00;;;;;;;;;;4923447;29;20467;-69
2023/10/11 10:09:16;;;;;;;1019.83;846.58;;;;;;;;;;4924096;29;20474;-69
2023/10/11 10:12:11;;;;;;;1026.90;847.20;;;;;;;;;;4919277;29;20964;-69
2023/10/11 10:14:45;;;;;;;1043.85;875.38;;;;;;;;;;4919339;29;20441;-69
2023/10/11 10:17:15;;;;;;;1035.82;860.70;;;;;;;;;;4912723;29;20443;-69
2023/10/11 10:19:52;;;;;;;1030.97;856.08;;;;;;;;;;4928021;29;20563;-70
2023/10/11 10:22:23;;;;;;;1038.88;879.63;;;;;;;;;;4926585;29;20449;-69
2023/10/11 10:24:55;;;;;;;1049.57;886.60;;;;;;;;;;4922561;29;20445;-70
2023/10/11 10:27:34;;;;;;;1061.28;904.53;;;;;;;;;;4909453;29;20435;-69
2023/10/11 10:30:06;;;;;;;1058.85;909.85;;;;;;;;;;4923215;29;20442;-71
2023/10/11 10:32:34;;;;;;;1054.80;900.35;;;;;;;;;;4926608;29;20446;-69
2023/10/11 10:35:19;;;;;;;1051.43;896.10;;;;;;;;;;4927198;29;20524;-70
2023/10/11 10:37:56;;;;;;;1057.37;905.93;;;;;;;;;;4924316;29;20443;-69
2023/10/11 10:40:26;;;;;;;1051.30;921.30;;;;;;;;;;4922861;29;21007;-67
2023/10/11 10:43:14;;;;;;;1059.55;917.00;;;;;;;;;;4907043;29;20443;-69
2023/10/11 10:45:42;;;;;;;764.60;700.00;;;;;;;;;;4922904;29;20447;-69
2023/10/11 10:48:14;;;;;;;1072.22;940.13;;;;;;;;;;4928806;29;20760;-70
2023/10/11 10:51:00;;;;;;;1037.23;943.33;;;;;;;;;;4930284;29;20436;-69
2023/10/11 10:53:39;;;;;;;1055.85;947.15;;;;;;;;;;4917599;29;20886;-69
2023/10/11 10:56:21;;;;;;;1049.10;941.03;;;;;;;;;;4922281;29;20598;-69
2023/10/11 10:58:49;;;;;;;1052.28;953.47;;;;;;;;;;4923155;29;20440;-69
2023/10/11 11:01:26;;;;;;;1052.50;956.97;;;;;;;;;;4923743;29;20447;-69
2023/10/11 11:03:57;;;;;;;1089.30;982.33;;;;;;;;;;4921424;29;20795;-70
2023/10/11 11:06:28;;;;;;;1142.97;999.90;;;;;;;;;;4920419;29;20435;-69
2023/10/11 11:09:00;;;;;;;1146.53;999.90;;;;;;;;;;4916622;29;20471;-71
2023/10/11 11:11:28;;;;;;;1128.88;999.90;;;;;;;;;;4923245;29;20502;-68
2023/10/11 11:13:55;;;;;;;1155.82;999.90;;;;;;;;;;4929423;29;20447;-70
2023/10/11 11:16:26;;;;;;;1137.97;999.90;;;;;;;;;;4922299;29;20886;-70
2023/10/11 11:19:00;;;;;;;1151.80;999.90;;;;;;;;;;4920277;29;20445;-69
2023/10/11 11:21:30;;;;;;;1118.37;999.90;;;;;;;;;;4920284;29;20451;-69
2023/10/11 11:24:14;;;;;;;1146.30;999.90;;;;;;;;;;4928525;29;20451;-70
2023/10/11 11:26:42;;;;;;;1134.28;999.90;;;;;;;;;;4929316;29;20447;-68
2023/10/11 11:29:14;;;;;;;1106.30;999.90;;;;;;;;;;4929817;29;21120;-70
2023/10/11 11:31:51;;;;;;;966.03;886.83;;;;;;;;;;4924490;29;20441;-70
2023/10/11 11:34:37;;;;;;;870.05;797.47;;;;;;;;;;4904270;29;21047;-70
2023/10/11 11:37:06;;;;;;;1019.42;936.20;;;;;;;;;;4922663;29;20538;-69
2023/10/11 11:39:51;;;;;;;760.05;695.00;;;;;;;;;;4919731;29;20437;-70
2023/10/11 11:42:19;;;;;;;664.20;605.50;;;;;;;;;;4919591;29;20442;-69
2023/10/11 11:44:55;;;;;;;621.20;565.33;;;;;;;;;;4918848;29;20511;-70
2023/10/11 11:47:22;;;;;;;560.70;509.48;;;;;;;;;;4926411;29;20445;-69
2023/10/11 11:49:54;;;;;;;726.88;663.65;;;;;;;;;;4928585;29;20471;-69
2023/10/11 11:52:24;;;;;;;515.27;468.47;;;;;;;;;;4929332;29;20483;-69
2023/10/11 11:54:54;;;;;;;712.95;650.75;;;;;;;;;;4925038;29;20443;-72
2023/10/11 11:57:29;;;;;;;766.85;700.90;;;;;;;;;;4912666;29;20440;-70
2023/10/11 11:59:57;;;;;;;545.60;495.73;;;;;;;;;;4924524;29;20439;-68
2023/10/11 12:02:26;;;;;;;621.83;565.95;;;;;;;;;;4910268;29;20446;-70
2023/10/11 12:04:56;;;;;;;458.92;417.55;;;;;;;;;;4922822;29;20551;-70
2023/10/11 12:07:27;;;;;;;765.50;699.58;;;;;;;;;;4918609;29;20522;-71
2023/10/11 12:09:55;;;;;;;675.40;616.28;;;;;;;;;;4907233;29;20453;-69
2023/10/11 12:12:30;;;;;;;457.83;415.92;;;;;;;;;;4919177;29;20499;-70
2023/10/11 12:15:00;;;;;;;832.75;762.50;;;;;;;;;;4918559;29;20444;-69
2023/10/11 12:17:28;;;;;;;996.00;914.53;;;;;;;;;;4923504;29;20948;-70
2023/10/11 12:19:55;;;;;;;1118.03;999.90;;;;;;;;;;4918406;29;20514;-69
2023/10/11 12:22:26;;;;;;;992.78;911.38;;;;;;;;;;4921844;29;20442;-70
2023/10/11 12:24:58;;;;;;;1032.72;945.30;;;;;;;;;;4924638;29;20444;-71
2023/10/11 12:27:26;;;;;;;1139.32;999.90;;;;;;;;;;4925646;29;20436;-70
2023/10/11 12:29:54;;;;;;;1064.28;978.08;;;;;;;;;;4919476;29;20532;-71
2023/10/11 12:32:24;;;;;;;713.08;651.13;;;;;;;;;;4926455;29;20435;-68
2023/10/11 12:34:52;;;;;;;535.17;486.33;;;;;;;;;;4924367;29;20850;-67
2023/10/11 12:37:19;;;;;;;880.87;807.23;;;;;;;;;;4926687;29;20441;-66
2023/10/11 12:39:49;;;;;;;975.33;895.10;;;;;;;;;;4921138;29;20958;-67
2023/10/11 12:42:16;;;;;;;981.05;900.72;;;;;;;;;;4918432;29;20441;-69
2023/10/11 12:44:44;;;;;;;806.17;737.85;;;;;;;;;;4916274;29;20975;-67
2023/10/11 12:47:11;;;;;;;725.58;662.60;;;;;;;;;;4925356;29;20523;-71
2023/10/11 12:49:38;;;;;;;653.80;597.03;;;;;;;;;;4921498;29;21105;-68
2023/10/11 12:52:06;;;;;;;1166.82;999.90;;;;;;;;;;4923533;29;20504;-69
2023/10/11 12:54:33;;;;;;;1170.37;999.90;;;;;;;;;;4924079;29;20457;-70
2023/10/11 12:57:06;;;;;;;1079.18;990.40;;;;;;;;;;4922691;29;20439;-71
2023/10/11 12:59:35;;;;;;;1155.43;999.90;;;;;;;;;;4920292;29;20841;-69
2023/10/11 13:02:04;;;;;;;1161.82;999.90;;;;;;;;;;4928036;29;20439;-67
2023/10/11 13:04:32;;;;;;;1175.17;999.90;;;;;;;;;;4924241;29;20468;-69
2023/10/11 13:06:59;;;;;;;1153.90;999.90;;;;;;;;;;4919803;29;20445;-67
2023/10/11 13:09:27;;;;;;;1159.85;999.90;;;;;;;;;;4917287;29;20985;-69
2023/10/11 13:11:58;;;;;;;790.30;722.88;;;;;;;;;;4928570;29;20439;-68
2023/10/11 13:14:27;;;;;;;976.92;896.30;;;;;;;;;;4923475;29;20559;-70
2023/10/11 13:16:55;;;;;;;664.58;605.85;;;;;;;;;;4919621;29;20443;-67
2023/10/11 13:19:24;;;;;;;1063.70;977.20;;;;;;;;;;4908050;29;20471;-68
2023/10/11 13:21:55;;;;;;;1134.47;999.90;;;;;;;;;;4918004;29;21286;-68
2023/10/11 13:24:26;;;;;;;1145.00;999.90;;;;;;;;;;4927217;29;20507;-67
2023/10/11 13:26:54;;;;;;;1154.40;999.90;;;;;;;;;;4900860;29;20517;-68
2023/10/11 13:29:25;;;;;;;1107.03;999.90;;;;;;;;;;4911768;29;20440;-67
2023/10/11 13:31:53;;;;;;;1058.03;972.10;;;;;;;;;;4922289;29;20450;-68
2023/10/11 13:34:24;;;;;;;1144.25;999.90;;;;;;;;;;4924958;29;20558;-67
2023/10/11 13:36:51;;;;;;;783.40;716.55;;;;;;;;;;4921389;29;20900;-69
2023/10/11 13:39:25;;;;;;;1151.00;999.90;;;;;;;;;;4926209;29;20439;-70
2023/10/11 13:41:56;;;;;;;1150.47;999.90;;;;;;;;;;4917262;29;20443;-69
2023/10/11 13:44:26;;;;;;;1163.47;999.90;;;;;;;;;;4924306;29;20439;-70
2023/10/11 13:46:57;;;;;;;1163.93;999.90;;;;;;;;;;4910621;29;20950;-67
2023/10/11 13:49:25;;;;;;;1151.32;999.90;;;;;;;;;;4926352;29;20474;-67
2023/10/11 13:51:59;;;;;;;1138.22;999.90;;;;;;;;;;4920664;29;20444;-68
2023/10/11 13:57:17;;;;;;;1142.60;999.90;;;;;;;;;;4917510;29;20954;-70
2023/10/11 13:59:45;;;;;;;1133.30;999.90;;;;;;;;;;4924892;29;20464;-68
2023/10/11 14:05:13;;;;;;;1121.13;999.90;;;;;;;;;;4926397;29;21190;-67
2023/10/11 14:07:53;;;;;;;1104.20;999.90;;;;;;;;;;4925679;29;20475;-67
2023/10/11 14:10:36;;;;;;;526.05;478.85;;;;;;;;;;4927440;29;20547;-70
2023/10/11 14:13:09;;;;;;;935.92;859.05;;;;;;;;;;4920337;29;20472;-67
2023/10/11 14:15:37;;;;;;;1040.43;953.33;;;;;;;;;;4924846;29;21143;-68
2023/10/11 14:18:11;;;;;;;770.67;704.50;;;;;;;;;;4928945;29;20439;-67
2023/10/11 14:20:40;;;;;;;1089.70;996.97;;;;;;;;;;4910645;29;20450;-69
2023/10/11 14:23:09;;;;;;;974.60;894.85;;;;;;;;;;4924951;29;20526;-66
2023/10/11 14:25:36;;;;;;;972.50;892.53;;;;;;;;;;4927469;29;20447;-68
2023/10/11 14:28:03;;;;;;;1078.65;990.67;;;;;;;;;;4924360;29;20805;-67
2023/10/11 14:30:32;;;;;;;1104.37;999.90;;;;;;;;;;4924800;29;20839;-67
2023/10/11 14:33:00;;;;;;;1098.55;999.90;;;;;;;;;;4920578;29;20440;-67
2023/10/11 14:35:31;;;;;;;503.58;457.67;;;;;;;;;;4921591;29;20502;-68
2023/10/11 14:37:58;;;;;;;887.92;813.85;;;;;;;;;;4924730;29;20516;-69
2023/10/11 14:40:28;;;;;;;869.03;796.45;;;;;;;;;;4927043;29;20599;-68
2023/10/11 14:42:55;;;;;;;1110.50;999.90;;;;;;;;;;4928673;29;20532;-67
2023/10/11 14:45:23;;;;;;;1118.25;999.90;;;;;;;;;;4929990;29;20466;-69
2023/10/11 14:47:52;;;;;;;1024.70;941.25;;;;;;;;;;4930767;29;20444;-68
2023/10/11 14:50:25;;;;;;;792.15;724.88;;;;;;;;;;4923312;29;20447;-69
2023/10/11 14:52:58;;;;;;;781.50;715.07;;;;;;;;;;4920505;29;20441;-69
2023/10/11 14:55:28;;;;;;;656.67;599.13;;;;;;;;;;4926371;29;20449;-68
2023/10/11 14:57:56;;;;;;;499.92;454.10;;;;;;;;;;4922337;29;20441;-68
2023/10/11 15:00:33;;;;;;;588.53;535.53;;;;;;;;;;4925853;29;20568;-70
2023/10/11 15:03:04;;;;;;;514.90;467.67;;;;;;;;;;4924729;29;20512;-68
2023/10/11 15:05:32;;;;;;;531.58;483.02;;;;;;;;;;4922298;29;20833;-67
2023/10/11 15:07:59;;;;;;;557.17;506.30;;;;;;;;;;4923730;29;20541;-68